createdAt,value
2023-03-19T00:00:14.053Z,7.91
2023-03-19T00:01:17.382Z,7.91
2023-03-19T00:02:20.131Z,7.88
2023-03-19T00:03:22.352Z,7.88
2023-03-19T00:04:25.712Z,7.88
2023-03-19T00:05:28.404Z,7.87
2023-03-19T00:06:30.780Z,7.87
2023-03-19T00:07:32.959Z,7.87
2023-03-19T00:08:35.432Z,7.86
2023-03-19T00:09:37.634Z,7.86
2023-03-19T00:10:40.109Z,7.85
2023-03-19T00:11:42.430Z,7.85
2023-03-19T00:12:44.574Z,7.85
2023-03-19T00:13:46.734Z,7.84
2023-03-19T00:14:51.035Z,7.85
2023-03-19T00:15:53.195Z,7.85
2023-03-19T00:16:55.523Z,7.83
2023-03-19T00:17:57.885Z,7.84
2023-03-19T00:19:00.295Z,7.84
2023-03-19T00:20:02.760Z,7.82
2023-03-19T00:21:05.897Z,7.82
2023-03-19T00:22:08.718Z,7.82
2023-03-19T00:23:10.958Z,7.82
2023-03-19T00:24:13.240Z,7.81
2023-03-19T00:25:15.745Z,7.81
2023-03-19T00:26:18.698Z,7.80
2023-03-19T00:27:21.251Z,7.81
2023-03-19T00:28:23.652Z,7.80
2023-03-19T00:29:25.835Z,7.79
2023-03-19T00:30:28.117Z,7.78
2023-03-19T00:31:30.863Z,7.77
2023-03-19T00:32:34.195Z,7.76
2023-03-19T00:33:37.059Z,7.76
2023-03-19T00:34:39.219Z,7.75
2023-03-19T00:35:41.509Z,7.75
2023-03-19T00:36:45.220Z,7.75
2023-03-19T00:37:47.489Z,7.75
2023-03-19T00:38:49.764Z,7.75
2023-03-19T00:39:51.911Z,7.73
2023-03-19T00:40:54.226Z,7.72
2023-03-19T00:41:56.460Z,7.72
2023-03-19T00:42:58.665Z,7.70
2023-03-19T00:44:01.168Z,7.70
2023-03-19T00:45:05.905Z,7.69
2023-03-19T00:46:08.756Z,7.68
2023-03-19T00:47:11.180Z,7.68
2023-03-19T00:48:13.391Z,7.69
2023-03-19T00:49:15.594Z,7.68
2023-03-19T00:50:17.915Z,7.68
2023-03-19T00:51:20.123Z,7.67
2023-03-19T00:52:22.367Z,7.68
2023-03-19T00:53:26.183Z,7.68
2023-03-19T00:54:28.372Z,7.67
2023-03-19T00:55:30.701Z,7.67
2023-03-19T00:56:32.956Z,7.66
2023-03-19T00:57:35.824Z,7.65
2023-03-19T00:58:41.332Z,7.65
2023-03-19T00:59:43.583Z,7.64
2023-03-19T01:00:46.162Z,7.63
2023-03-19T01:01:49.771Z,7.62
2023-03-19T01:02:52.104Z,7.63
2023-03-19T01:03:54.242Z,7.62
2023-03-19T01:04:58.195Z,7.62
2023-03-19T01:06:00.449Z,7.63
2023-03-19T01:07:02.814Z,7.61
2023-03-19T01:08:05.140Z,7.60
2023-03-19T01:09:07.713Z,7.60
2023-03-19T01:10:11.311Z,7.60
2023-03-19T01:11:15.378Z,7.59
2023-03-19T01:12:19.544Z,7.58
2023-03-19T01:13:21.996Z,7.58
2023-03-19T01:14:24.913Z,7.58
2023-03-19T01:15:27.306Z,7.58
2023-03-19T01:16:29.689Z,7.58
2023-03-19T01:17:32.137Z,7.57
2023-03-19T01:18:34.629Z,7.58
2023-03-19T01:19:36.814Z,7.56
2023-03-19T01:20:41.604Z,7.56
2023-03-19T01:21:46.583Z,7.56
2023-03-19T01:22:53.393Z,7.57
2023-03-19T01:23:56.030Z,7.55
2023-03-19T01:25:00.757Z,7.56
2023-03-19T01:26:03.558Z,7.55
2023-03-19T01:27:06.230Z,7.54
2023-03-19T01:28:11.687Z,7.54
2023-03-19T01:29:15.033Z,7.56
2023-03-19T01:30:18.345Z,7.52
2023-03-19T01:31:46.296Z,7.50
2023-03-19T01:33:11.953Z,7.51
2023-03-19T01:34:29.541Z,7.51
2023-03-19T01:35:38.041Z,7.50
2023-03-19T01:36:41.484Z,7.50
2023-03-19T01:37:43.902Z,7.50
2023-03-19T01:38:46.562Z,7.49
2023-03-19T01:39:51.245Z,7.48
2023-03-19T01:40:53.539Z,7.50
2023-03-19T01:41:55.788Z,7.48
2023-03-19T01:43:29.744Z,7.46
2023-03-19T01:44:50.583Z,7.44
2023-03-19T01:46:28.742Z,7.43
2023-03-19T01:47:49.662Z,7.45
2023-03-19T01:49:06.500Z,7.43
2023-03-19T01:50:25.244Z,7.42
2023-03-19T01:51:55.561Z,7.41
2023-03-19T01:53:16.348Z,7.39
2023-03-19T01:54:27.165Z,7.38
2023-03-19T01:55:41.629Z,7.38
2023-03-19T01:57:05.531Z,7.37
2023-03-19T01:58:26.852Z,7.36
2023-03-19T01:59:46.661Z,7.34
2023-03-19T02:01:15.561Z,7.34
2023-03-19T02:02:27.359Z,7.32
2023-03-19T02:03:30.845Z,7.32
2023-03-19T02:04:49.546Z,7.31
2023-03-19T02:05:53.363Z,7.31
2023-03-19T02:06:58.411Z,7.31
2023-03-19T02:08:05.302Z,7.30
2023-03-19T02:09:08.713Z,7.30
2023-03-19T02:10:14.854Z,7.29
2023-03-19T02:11:19.111Z,7.29
2023-03-19T02:12:21.542Z,7.28
2023-03-19T02:13:24.017Z,7.29
2023-03-19T02:14:26.778Z,7.28
2023-03-19T02:15:29.164Z,7.28
2023-03-19T02:16:31.926Z,7.28
2023-03-19T02:17:34.219Z,7.27
2023-03-19T02:18:36.905Z,7.26
2023-03-19T02:19:49.479Z,7.27
2023-03-19T02:21:08.407Z,7.26
2023-03-19T02:22:12.109Z,7.27
2023-03-19T02:23:25.741Z,7.26
2023-03-19T02:24:38.284Z,7.25
2023-03-19T02:25:48.280Z,7.23
2023-03-19T02:26:51.693Z,7.23
2023-03-19T02:27:54.536Z,7.23
2023-03-19T02:28:57.087Z,7.22
2023-03-19T02:30:26.317Z,7.22
2023-03-19T02:31:29.100Z,7.22
2023-03-19T02:32:31.552Z,7.20
2023-03-19T02:33:34.361Z,7.21
2023-03-19T02:34:39.630Z,7.19
2023-03-19T02:35:42.501Z,7.20
2023-03-19T02:36:51.960Z,7.19
2023-03-19T02:37:54.275Z,7.18
2023-03-19T02:38:58.774Z,7.19
2023-03-19T02:40:29.515Z,7.19
2023-03-19T02:41:33.151Z,7.18
2023-03-19T02:42:35.605Z,7.19
2023-03-19T02:43:40.600Z,7.18
2023-03-19T02:44:43.480Z,7.19
2023-03-19T02:45:47.035Z,7.19
2023-03-19T02:46:49.516Z,7.18
2023-03-19T02:47:52.029Z,7.18
2023-03-19T02:48:54.666Z,7.19
2023-03-19T02:49:57.036Z,7.18
2023-03-19T02:50:59.493Z,7.19
2023-03-19T02:52:02.041Z,7.20
2023-03-19T02:53:04.354Z,7.20
2023-03-19T02:54:06.686Z,7.20
2023-03-19T02:55:11.560Z,7.20
2023-03-19T02:56:13.907Z,7.21
2023-03-19T02:57:16.343Z,7.21
2023-03-19T02:58:18.929Z,7.22
2023-03-19T02:59:21.616Z,7.22
2023-03-19T03:00:24.281Z,7.23
2023-03-19T03:01:26.463Z,7.21
2023-03-19T03:02:28.743Z,7.22
2023-03-19T03:03:31.561Z,7.23
2023-03-19T03:04:35.086Z,7.22
2023-03-19T03:05:37.471Z,7.21
2023-03-19T03:06:39.818Z,7.21
2023-03-19T03:07:43.893Z,7.22
2023-03-19T03:08:46.286Z,7.23
2023-03-19T03:09:48.484Z,7.23
2023-03-19T03:10:50.809Z,7.21
2023-03-19T03:11:53.393Z,7.21
2023-03-19T03:12:56.175Z,7.20
2023-03-19T03:13:58.748Z,7.21
2023-03-19T03:15:02.631Z,7.20
2023-03-19T03:16:05.450Z,7.22
2023-03-19T03:17:08.895Z,7.22
2023-03-19T03:18:11.369Z,7.20
2023-03-19T03:19:13.819Z,7.22
2023-03-19T03:20:17.825Z,7.21
2023-03-19T03:21:22.741Z,7.21
2023-03-19T03:22:25.228Z,7.21
2023-03-19T03:23:27.841Z,7.20
2023-03-19T03:24:30.084Z,7.20
2023-03-19T03:25:32.337Z,7.19
2023-03-19T03:26:36.183Z,7.19
2023-03-19T03:27:39.064Z,7.19
2023-03-19T03:28:41.384Z,7.20
2023-03-19T03:29:43.687Z,7.19
2023-03-19T03:30:47.214Z,7.21
2023-03-19T03:31:49.917Z,7.20
2023-03-19T03:32:52.093Z,7.20
2023-03-19T03:33:54.423Z,7.19
2023-03-19T03:34:56.755Z,7.20
2023-03-19T03:35:59.351Z,7.20
2023-03-19T03:37:01.752Z,7.19
2023-03-19T03:38:04.348Z,7.19
2023-03-19T03:39:06.751Z,7.18
2023-03-19T03:40:09.739Z,7.19
2023-03-19T03:41:12.210Z,7.18
2023-03-19T03:42:14.594Z,7.17
2023-03-19T03:43:17.407Z,7.17
2023-03-19T03:44:21.265Z,7.17
2023-03-19T03:45:23.818Z,7.16
2023-03-19T03:46:27.329Z,7.17
2023-03-19T03:47:29.773Z,7.17
2023-03-19T03:48:32.012Z,7.17
2023-03-19T03:49:34.208Z,7.17
2023-03-19T03:50:37.019Z,7.16
2023-03-19T03:51:44.721Z,7.17
2023-03-19T03:52:48.057Z,7.16
2023-03-19T03:53:50.356Z,7.16
2023-03-19T03:54:53.835Z,7.16
2023-03-19T03:55:56.685Z,7.14
2023-03-19T03:57:03.497Z,7.16
2023-03-19T03:58:06.608Z,7.17
2023-03-19T03:59:09.897Z,7.15
2023-03-19T04:00:12.863Z,7.16
2023-03-19T04:01:20.432Z,7.16
2023-03-19T04:02:28.425Z,7.16
2023-03-19T04:03:30.722Z,7.15
2023-03-19T04:04:33.933Z,7.13
2023-03-19T04:05:38.137Z,7.13
2023-03-19T04:06:41.504Z,7.13
2023-03-19T04:08:04.935Z,7.12
2023-03-19T04:09:08.150Z,7.11
2023-03-19T04:10:12.190Z,7.10
2023-03-19T04:11:15.243Z,7.10
2023-03-19T04:12:17.434Z,7.11
2023-03-19T04:13:19.616Z,7.09
2023-03-19T04:14:22.201Z,7.10
2023-03-19T04:15:24.416Z,7.09
2023-03-19T04:16:30.215Z,7.07
2023-03-19T04:17:32.672Z,7.08
2023-03-19T04:18:35.495Z,7.06
2023-03-19T04:19:37.781Z,7.04
2023-03-19T04:20:41.355Z,7.03
2023-03-19T04:21:44.988Z,7.03
2023-03-19T04:22:47.876Z,7.03
2023-03-19T04:23:50.084Z,7.01
2023-03-19T04:24:52.597Z,7.01
2023-03-19T04:26:02.788Z,7.02
2023-03-19T04:27:07.508Z,7.01
2023-03-19T04:28:11.045Z,6.99
2023-03-19T04:29:13.661Z,6.99
2023-03-19T04:30:17.141Z,6.96
2023-03-19T04:31:19.365Z,6.97
2023-03-19T04:32:21.652Z,6.97
2023-03-19T04:33:24.353Z,6.97
2023-03-19T04:34:27.820Z,6.96
2023-03-19T04:35:30.057Z,6.95
2023-03-19T04:36:32.321Z,6.93
2023-03-19T04:37:35.136Z,6.92
2023-03-19T04:38:38.332Z,6.92
2023-03-19T04:39:41.358Z,6.93
2023-03-19T04:40:46.714Z,6.94
2023-03-19T04:41:49.262Z,6.94
2023-03-19T04:43:05.752Z,6.94
2023-03-19T04:44:11.201Z,6.94
2023-03-19T04:45:17.372Z,6.97
2023-03-19T04:46:21.065Z,6.95
2023-03-19T04:47:23.473Z,6.95
2023-03-19T04:48:35.941Z,6.97
2023-03-19T04:49:38.558Z,6.95
2023-03-19T04:50:41.367Z,6.94
2023-03-19T04:51:45.579Z,6.95
2023-03-19T04:52:48.184Z,6.96
2023-03-19T04:53:50.824Z,6.97
2023-03-19T04:54:53.314Z,6.97
2023-03-19T04:55:56.630Z,6.95
2023-03-19T04:56:59.148Z,6.95
2023-03-19T04:58:06.040Z,6.95
2023-03-19T04:59:10.724Z,6.94
2023-03-19T05:00:14.939Z,6.95
2023-03-19T05:01:18.952Z,6.94
2023-03-19T05:02:47.698Z,6.95
2023-03-19T05:03:50.693Z,6.95
2023-03-19T05:04:53.812Z,6.95
2023-03-19T05:05:56.401Z,6.95
2023-03-19T05:06:58.766Z,6.95
2023-03-19T05:08:01.683Z,6.94
2023-03-19T05:09:05.403Z,6.93
2023-03-19T05:10:09.377Z,6.93
2023-03-19T05:11:12.618Z,6.90
2023-03-19T05:12:30.770Z,6.89
2023-03-19T05:13:33.528Z,6.90
2023-03-19T05:14:35.842Z,6.88
2023-03-19T05:15:46.731Z,6.88
2023-03-19T05:16:49.464Z,6.88
2023-03-19T05:17:51.922Z,6.85
2023-03-19T05:18:56.865Z,6.85
2023-03-19T05:20:00.826Z,6.87
2023-03-19T05:21:04.945Z,6.87
2023-03-19T05:22:07.187Z,6.86
2023-03-19T05:23:10.272Z,6.86
2023-03-19T05:24:20.096Z,6.85
2023-03-19T05:25:22.430Z,6.83
2023-03-19T05:26:24.696Z,6.85
2023-03-19T05:27:53.745Z,6.84
2023-03-19T05:28:58.880Z,6.83
2023-03-19T05:30:11.212Z,6.82
2023-03-19T05:31:25.982Z,6.79
2023-03-19T05:32:29.778Z,6.80
2023-03-19T05:33:34.001Z,6.78
2023-03-19T05:34:36.555Z,6.78
2023-03-19T05:35:39.175Z,6.76
2023-03-19T05:36:47.624Z,6.76
2023-03-19T05:37:56.855Z,6.77
2023-03-19T05:38:59.348Z,6.76
2023-03-19T05:40:09.739Z,6.74
2023-03-19T05:41:13.171Z,6.74
2023-03-19T05:42:23.046Z,6.72
2023-03-19T05:43:25.652Z,6.72
2023-03-19T05:44:28.177Z,6.71
2023-03-19T05:45:36.664Z,6.71
2023-03-19T05:46:48.243Z,6.72
2023-03-19T05:47:52.013Z,6.72
2023-03-19T05:48:55.769Z,6.71
2023-03-19T05:49:58.251Z,6.71
2023-03-19T05:51:00.832Z,6.71
2023-03-19T05:52:08.313Z,6.71
2023-03-19T05:53:10.544Z,6.70
2023-03-19T05:54:15.691Z,6.71
2023-03-19T05:55:38.620Z,6.72
2023-03-19T05:56:44.017Z,6.72
2023-03-19T05:57:58.126Z,6.73
2023-03-19T05:59:02.240Z,6.73
2023-03-19T06:00:12.270Z,6.76
2023-03-19T06:01:14.696Z,6.76
2023-03-19T06:02:17.648Z,6.76
2023-03-19T06:03:20.135Z,6.79
2023-03-19T06:04:25.035Z,6.80
2023-03-19T06:05:27.993Z,6.81
2023-03-19T06:06:35.796Z,6.82
2023-03-19T06:07:38.859Z,6.83
2023-03-19T06:08:46.948Z,6.82
2023-03-19T06:09:57.165Z,6.84
2023-03-19T06:10:59.686Z,6.85
2023-03-19T06:12:04.193Z,6.86
2023-03-19T06:13:24.867Z,6.86
2023-03-19T06:14:39.890Z,6.88
2023-03-19T06:16:02.077Z,6.89
2023-03-19T06:17:10.493Z,6.92
2023-03-19T06:18:13.120Z,6.93
2023-03-19T06:19:15.409Z,6.95
2023-03-19T06:20:17.996Z,6.94
2023-03-19T06:21:20.868Z,6.94
2023-03-19T06:22:23.169Z,6.97
2023-03-19T06:23:25.576Z,6.95
2023-03-19T06:24:30.580Z,6.96
2023-03-19T06:25:32.850Z,6.98
2023-03-19T06:26:35.929Z,6.99
2023-03-19T06:27:43.405Z,7.00
2023-03-19T06:28:57.840Z,7.01
2023-03-19T06:30:00.412Z,7.03
2023-03-19T06:31:07.726Z,7.05
2023-03-19T06:32:36.314Z,7.06
2023-03-19T06:33:43.967Z,7.08
2023-03-19T06:34:46.863Z,7.12
2023-03-19T06:35:51.581Z,7.13
2023-03-19T06:36:56.061Z,7.15
2023-03-19T06:37:58.286Z,7.18
2023-03-19T06:39:00.991Z,7.21
2023-03-19T06:40:05.199Z,7.25
2023-03-19T06:41:10.241Z,7.28
2023-03-19T06:42:12.519Z,7.32
2023-03-19T06:43:14.857Z,7.36
2023-03-19T06:44:17.210Z,7.42
2023-03-19T06:45:19.674Z,7.48
2023-03-19T06:46:21.947Z,7.52
2023-03-19T06:47:24.224Z,7.59
2023-03-19T06:48:26.483Z,7.65
2023-03-19T06:49:29.122Z,7.70
2023-03-19T06:50:32.776Z,7.77
2023-03-19T06:51:36.751Z,7.85
2023-03-19T06:52:39.403Z,7.93
2023-03-19T06:53:41.685Z,8.00
2023-03-19T06:54:43.981Z,8.07
2023-03-19T06:55:47.066Z,8.13
2023-03-19T06:56:49.260Z,8.19
2023-03-19T06:57:51.574Z,8.27
2023-03-19T06:58:53.750Z,8.36
2023-03-19T06:59:55.955Z,8.43
2023-03-19T07:00:59.413Z,8.50
2023-03-19T07:02:02.286Z,8.55
2023-03-19T07:03:04.494Z,8.60
2023-03-19T07:04:07.865Z,8.66
2023-03-19T07:05:11.608Z,8.72
2023-03-19T07:06:13.829Z,8.76
2023-03-19T07:07:16.130Z,8.81
2023-03-19T07:08:18.497Z,8.88
2023-03-19T07:09:20.741Z,8.92
2023-03-19T07:10:22.943Z,8.97
2023-03-19T07:11:25.146Z,9.01
2023-03-19T07:12:28.785Z,9.05
2023-03-19T07:13:31.125Z,9.09
2023-03-19T07:14:33.341Z,9.12
2023-03-19T07:15:36.969Z,9.18
2023-03-19T07:16:39.227Z,9.23
2023-03-19T07:17:41.573Z,9.28
2023-03-19T07:18:44.117Z,9.34
2023-03-19T07:19:46.275Z,9.40
2023-03-19T07:20:48.427Z,9.44
2023-03-19T07:21:52.094Z,9.46
2023-03-19T07:22:54.817Z,9.53
2023-03-19T07:23:57.002Z,9.59
2023-03-19T07:24:59.149Z,9.65
2023-03-19T07:26:03.407Z,9.70
2023-03-19T07:27:05.835Z,9.75
2023-03-19T07:28:08.026Z,9.80
2023-03-19T07:29:11.505Z,9.85
2023-03-19T07:30:14.593Z,9.86
2023-03-19T07:31:18.167Z,9.90
2023-03-19T07:32:21.809Z,9.94
2023-03-19T07:33:25.650Z,9.98
2023-03-19T07:34:28.150Z,10.02
2023-03-19T07:35:30.609Z,10.07
2023-03-19T07:36:32.933Z,10.11
2023-03-19T07:37:36.876Z,10.14
2023-03-19T07:38:39.367Z,10.17
2023-03-19T07:39:41.598Z,10.20
2023-03-19T07:40:55.116Z,10.23
2023-03-19T07:42:04.315Z,10.22
2023-03-19T07:43:07.546Z,10.24
2023-03-19T07:44:09.905Z,10.26
2023-03-19T07:45:12.800Z,10.28
2023-03-19T07:46:15.870Z,10.33
2023-03-19T07:47:28.525Z,10.33
2023-03-19T07:48:31.881Z,10.35
2023-03-19T07:49:34.107Z,10.34
2023-03-19T07:50:36.435Z,10.36
2023-03-19T07:51:39.139Z,10.39
2023-03-19T07:52:42.377Z,10.38
2023-03-19T07:53:44.709Z,10.39
2023-03-19T07:54:47.238Z,10.42
2023-03-19T07:55:50.056Z,10.45
2023-03-19T07:56:52.322Z,10.47
2023-03-19T07:57:54.554Z,10.50
2023-03-19T07:58:56.960Z,10.53
2023-03-19T07:59:59.167Z,10.56
2023-03-19T08:01:01.782Z,10.60
2023-03-19T08:02:04.528Z,10.63
2023-03-19T08:03:08.527Z,10.63
2023-03-19T08:04:12.110Z,10.65
2023-03-19T08:05:14.730Z,10.68
2023-03-19T08:06:17.048Z,10.70
2023-03-19T08:07:19.960Z,10.74
2023-03-19T08:08:22.824Z,10.77
2023-03-19T08:09:25.149Z,10.78
2023-03-19T08:10:27.347Z,10.82
2023-03-19T08:11:30.187Z,10.83
2023-03-19T08:12:33.371Z,10.85
2023-03-19T08:13:35.657Z,10.89
2023-03-19T08:14:38.030Z,10.93
2023-03-19T08:15:40.750Z,10.96
2023-03-19T08:16:42.972Z,11.00
2023-03-19T08:17:45.406Z,11.04
2023-03-19T08:18:47.823Z,11.09
2023-03-19T08:19:50.016Z,11.13
2023-03-19T08:20:52.672Z,11.18
2023-03-19T08:21:54.882Z,11.22
2023-03-19T08:22:57.865Z,11.28
2023-03-19T08:24:00.459Z,11.31
2023-03-19T08:25:04.431Z,11.37
2023-03-19T08:26:07.174Z,11.43
2023-03-19T08:27:09.540Z,11.47
2023-03-19T08:28:12.080Z,11.50
2023-03-19T08:29:14.782Z,11.56
2023-03-19T08:30:17.832Z,11.60
2023-03-19T08:31:20.113Z,11.64
2023-03-19T08:32:22.720Z,11.68
2023-03-19T08:33:25.023Z,11.73
2023-03-19T08:34:27.327Z,11.75
2023-03-19T08:35:30.522Z,11.78
2023-03-19T08:36:32.764Z,11.84
2023-03-19T08:37:36.490Z,11.88
2023-03-19T08:38:39.313Z,11.92
2023-03-19T08:39:41.746Z,11.96
2023-03-19T08:40:43.945Z,12.00
2023-03-19T08:41:46.155Z,12.05
2023-03-19T08:42:49.237Z,12.07
2023-03-19T08:43:51.902Z,12.11
2023-03-19T08:44:57.223Z,12.14
2023-03-19T08:46:00.783Z,12.17
2023-03-19T08:47:03.761Z,12.21
2023-03-19T08:48:07.358Z,12.24
2023-03-19T08:49:09.642Z,12.28
2023-03-19T08:50:12.171Z,12.31
2023-03-19T08:51:14.489Z,12.34
2023-03-19T08:52:17.890Z,12.36
2023-03-19T08:53:20.470Z,12.39
2023-03-19T08:54:23.136Z,12.43
2023-03-19T08:55:26.118Z,12.45
2023-03-19T08:56:30.102Z,12.47
2023-03-19T08:57:32.408Z,12.49
2023-03-19T08:58:35.300Z,12.50
2023-03-19T08:59:37.588Z,12.51
2023-03-19T09:00:39.897Z,12.51
2023-03-19T09:01:42.152Z,12.54
2023-03-19T09:02:44.354Z,12.57
2023-03-19T09:03:46.653Z,12.59
2023-03-19T09:04:48.996Z,12.62
2023-03-19T09:05:53.769Z,12.64
2023-03-19T09:06:59.036Z,12.64
2023-03-19T09:08:02.680Z,12.64
2023-03-19T09:09:05.066Z,12.65
2023-03-19T09:10:07.855Z,12.67
2023-03-19T09:11:14.675Z,12.68
2023-03-19T09:12:17.683Z,12.72
2023-03-19T09:13:21.816Z,12.73
2023-03-19T09:14:24.150Z,12.75
2023-03-19T09:15:27.117Z,12.78
2023-03-19T09:16:30.356Z,12.82
2023-03-19T09:17:32.529Z,12.84
2023-03-19T09:18:35.407Z,12.89
2023-03-19T09:19:37.871Z,12.91
2023-03-19T09:20:40.395Z,12.95
2023-03-19T09:21:42.905Z,12.96
2023-03-19T09:22:45.372Z,13.00
2023-03-19T09:23:48.371Z,13.03
2023-03-19T09:24:50.607Z,13.05
2023-03-19T09:25:54.126Z,13.09
2023-03-19T09:26:56.334Z,13.13
2023-03-19T09:27:58.623Z,13.18
2023-03-19T09:29:02.329Z,13.21
2023-03-19T09:30:06.346Z,13.26
2023-03-19T09:31:12.022Z,13.30
2023-03-19T09:32:14.529Z,13.32
2023-03-19T09:33:18.240Z,13.36
2023-03-19T09:34:20.894Z,13.38
2023-03-19T09:35:23.751Z,13.41
2023-03-19T09:36:27.034Z,13.43
2023-03-19T09:37:29.254Z,13.45
2023-03-19T09:38:31.628Z,13.47
2023-03-19T09:39:34.097Z,13.48
2023-03-19T09:40:43.717Z,13.49
2023-03-19T09:42:24.458Z,13.52
2023-03-19T09:44:11.367Z,13.54
2023-03-19T09:45:16.937Z,13.57
2023-03-19T09:46:23.719Z,13.59
2023-03-19T09:47:32.488Z,13.62
2023-03-19T09:48:42.514Z,13.65
2023-03-19T09:49:51.058Z,13.67
2023-03-19T09:50:56.594Z,13.72
2023-03-19T09:52:15.241Z,13.77
2023-03-19T09:53:31.461Z,13.82
2023-03-19T09:54:35.920Z,13.89
2023-03-19T09:55:47.039Z,13.96
2023-03-19T09:56:49.439Z,14.01
2023-03-19T09:57:57.759Z,14.06
2023-03-19T09:59:01.292Z,14.10
2023-03-19T10:00:20.953Z,14.15
2023-03-19T10:01:32.660Z,14.22
2023-03-19T10:02:43.536Z,14.25
2023-03-19T10:04:09.462Z,14.31
2023-03-19T10:05:38.519Z,14.39
2023-03-19T10:06:41.190Z,14.44
2023-03-19T10:08:10.305Z,14.52
2023-03-19T10:09:23.967Z,14.55
2023-03-19T10:10:29.019Z,14.62
2023-03-19T10:11:38.744Z,14.70
2023-03-19T10:13:00.479Z,14.77
2023-03-19T10:14:20.443Z,14.83
2023-03-19T10:15:29.722Z,14.90
2023-03-19T10:16:33.092Z,14.97
2023-03-19T10:17:39.358Z,15.03
2023-03-19T10:18:45.373Z,15.05
2023-03-19T10:19:54.717Z,15.09
2023-03-19T10:21:32.285Z,15.15
2023-03-19T10:22:44.125Z,15.19
2023-03-19T10:24:03.643Z,15.24
2023-03-19T10:25:16.512Z,15.29
2023-03-19T10:26:21.947Z,15.35
2023-03-19T10:27:26.933Z,15.42
2023-03-19T10:28:31.358Z,15.45
2023-03-19T10:29:34.596Z,15.51
2023-03-19T10:30:37.795Z,15.54
2023-03-19T10:32:04.897Z,15.60
2023-03-19T10:33:26.563Z,15.67
2023-03-19T10:34:34.893Z,15.70
2023-03-19T10:35:44.623Z,15.75
2023-03-19T10:36:46.937Z,15.80
2023-03-19T10:37:51.135Z,15.86
2023-03-19T10:38:53.572Z,15.93
2023-03-19T10:40:00.872Z,15.98
2023-03-19T10:41:17.143Z,16.03
2023-03-19T10:43:03.534Z,16.11
2023-03-19T10:44:17.290Z,16.20
2023-03-19T10:45:29.160Z,16.25
2023-03-19T10:46:40.478Z,16.34
2023-03-19T10:47:44.990Z,16.37
2023-03-19T10:48:47.736Z,16.43
2023-03-19T10:49:51.502Z,16.49
2023-03-19T10:50:58.285Z,16.54
2023-03-19T10:52:01.982Z,16.59
2023-03-19T10:53:12.919Z,16.65
2023-03-19T10:54:22.262Z,16.70
2023-03-19T10:55:29.651Z,16.75
2023-03-19T10:56:34.387Z,16.81
2023-03-19T10:57:37.121Z,16.84
2023-03-19T10:58:40.470Z,16.88
2023-03-19T10:59:47.397Z,16.94
2023-03-19T11:00:58.426Z,16.96
2023-03-19T11:02:17.080Z,17.01
2023-03-19T11:03:30.521Z,17.06
2023-03-19T11:04:33.183Z,17.08
2023-03-19T11:05:35.888Z,17.13
2023-03-19T11:06:39.043Z,17.15
2023-03-19T11:07:41.460Z,17.18
2023-03-19T11:08:47.583Z,17.22
2023-03-19T11:09:51.613Z,17.24
2023-03-19T11:10:54.189Z,17.26
2023-03-19T11:12:06.717Z,17.28
2023-03-19T11:13:24.384Z,17.31
2023-03-19T11:14:37.414Z,17.33
2023-03-19T11:15:40.465Z,17.34
2023-03-19T11:17:04.886Z,17.36
2023-03-19T11:18:17.970Z,17.39
2023-03-19T11:19:29.634Z,17.42
2023-03-19T11:20:38.197Z,17.44
2023-03-19T11:21:40.506Z,17.46
2023-03-19T11:22:43.021Z,17.49
2023-03-19T11:23:45.300Z,17.50
2023-03-19T11:25:07.032Z,17.50
2023-03-19T11:26:10.476Z,17.51
2023-03-19T11:27:12.698Z,17.50
2023-03-19T11:28:21.796Z,17.50
2023-03-19T11:29:28.112Z,17.52
2023-03-19T11:30:42.205Z,17.52
2023-03-19T11:32:20.253Z,17.52
2023-03-19T11:33:48.165Z,17.53
2023-03-19T11:35:16.161Z,17.53
2023-03-19T11:36:33.126Z,17.53
2023-03-19T11:37:57.459Z,17.53
2023-03-19T11:39:03.832Z,17.50
2023-03-19T11:40:06.494Z,17.50
2023-03-19T11:41:30.634Z,17.44
2023-03-19T11:43:03.962Z,17.42
2023-03-19T11:44:18.922Z,17.40
2023-03-19T11:45:27.013Z,17.37
2023-03-19T11:46:54.761Z,17.36
2023-03-19T11:48:17.046Z,17.33
2023-03-19T11:49:50.938Z,17.32
2023-03-19T11:51:01.016Z,17.30
2023-03-19T11:52:12.282Z,17.29
2023-03-19T11:53:31.539Z,17.29
2023-03-19T11:55:24.815Z,17.25
2023-03-19T11:56:43.044Z,17.26
2023-03-19T11:58:00.237Z,17.27
2023-03-19T11:59:26.961Z,17.26
2023-03-19T12:00:47.357Z,17.26
2023-03-19T12:02:26.458Z,17.28
2023-03-19T12:03:52.658Z,17.31
2023-03-19T12:05:03.208Z,17.32
2023-03-19T12:06:13.270Z,17.34
2023-03-19T12:07:43.166Z,17.34
2023-03-19T12:08:55.828Z,17.36
2023-03-19T12:10:16.940Z,17.37
2023-03-19T12:11:52.500Z,17.33
2023-03-19T12:13:22.430Z,17.34
2023-03-19T12:14:43.818Z,17.34
2023-03-19T12:16:13.811Z,17.35
2023-03-19T12:17:29.906Z,17.34
2023-03-19T12:18:42.060Z,17.33
2023-03-19T12:20:20.383Z,17.30
2023-03-19T12:22:04.565Z,17.30
2023-03-19T12:23:17.717Z,17.29
2023-03-19T12:24:42.299Z,17.31
2023-03-19T12:25:51.027Z,17.31
2023-03-19T12:27:14.016Z,17.31
2023-03-19T12:28:32.518Z,17.30
2023-03-19T12:29:56.250Z,17.31
2023-03-19T12:31:21.932Z,17.29
2023-03-19T12:32:50.486Z,17.27
2023-03-19T12:34:09.705Z,17.29
2023-03-19T12:35:19.885Z,17.30
2023-03-19T12:36:29.149Z,17.29
2023-03-19T12:37:38.821Z,17.30
2023-03-19T12:38:52.295Z,17.29
2023-03-19T12:40:07.933Z,17.30
2023-03-19T12:41:15.143Z,17.30
2023-03-19T12:42:22.158Z,17.32
2023-03-19T12:43:30.353Z,17.31
2023-03-19T12:44:46.715Z,17.32
2023-03-19T12:45:57.205Z,17.34
2023-03-19T12:47:06.908Z,17.34
2023-03-19T12:48:14.765Z,17.36
2023-03-19T12:49:35.335Z,17.37
2023-03-19T12:50:40.547Z,17.37
2023-03-19T12:51:48.091Z,17.36
2023-03-19T12:52:58.267Z,17.38
2023-03-19T12:54:06.833Z,17.39
2023-03-19T12:55:43.978Z,17.40
2023-03-19T12:57:01.052Z,17.40
2023-03-19T12:58:22.748Z,17.41
2023-03-19T12:59:48.253Z,17.41
2023-03-19T13:01:12.478Z,17.41
2023-03-19T13:02:45.390Z,17.40
2023-03-19T13:03:55.665Z,17.40
2023-03-19T13:05:26.265Z,17.39
2023-03-19T13:06:35.717Z,17.38
2023-03-19T13:07:50.464Z,17.40
2023-03-19T13:09:13.339Z,17.38
2023-03-19T13:10:21.848Z,17.40
2023-03-19T13:11:34.964Z,17.40
2023-03-19T13:12:38.742Z,17.39
2023-03-19T13:13:51.029Z,17.41
2023-03-19T13:15:06.537Z,17.42
2023-03-19T13:16:33.988Z,17.43
2023-03-19T13:17:59.893Z,17.44
2023-03-19T13:19:30.388Z,17.45
2023-03-19T13:20:56.012Z,17.45
2023-03-19T13:22:06.822Z,17.46
2023-03-19T13:23:19.161Z,17.46
2023-03-19T13:24:29.555Z,17.46
2023-03-19T13:25:42.812Z,17.48
2023-03-19T13:26:47.218Z,17.49
2023-03-19T13:27:54.998Z,17.49
2023-03-19T13:29:22.388Z,17.50
2023-03-19T13:30:26.615Z,17.53
2023-03-19T13:31:34.809Z,17.53
2023-03-19T13:32:51.646Z,17.54
2023-03-19T13:34:03.205Z,17.55
2023-03-19T13:35:33.939Z,17.55
2023-03-19T13:36:39.615Z,17.56
2023-03-19T13:37:43.761Z,17.57
2023-03-19T13:38:49.088Z,17.58
2023-03-19T13:39:51.508Z,17.59
2023-03-19T13:40:56.836Z,17.60
2023-03-19T13:42:42.173Z,17.63
2023-03-19T13:43:53.352Z,17.65
2023-03-19T13:45:04.111Z,17.66
2023-03-19T13:46:12.937Z,17.68
2023-03-19T13:47:27.081Z,17.70
2023-03-19T13:48:29.222Z,17.71
2023-03-19T13:49:35.592Z,17.74
2023-03-19T13:51:01.198Z,17.75
2023-03-19T13:52:26.137Z,17.77
2023-03-19T13:53:31.352Z,17.79
2023-03-19T13:54:40.076Z,17.80
2023-03-19T13:55:51.851Z,17.81
2023-03-19T13:57:01.533Z,17.82
2023-03-19T13:58:12.701Z,17.84
2023-03-19T13:59:38.615Z,17.86
2023-03-19T14:00:43.648Z,17.86
2023-03-19T14:01:48.165Z,17.86
2023-03-19T14:02:53.839Z,17.87
2023-03-19T14:04:36.730Z,17.86
2023-03-19T14:05:38.933Z,17.86
2023-03-19T14:06:45.576Z,17.85
2023-03-19T14:07:54.959Z,17.83
2023-03-19T14:08:57.291Z,17.81
2023-03-19T14:10:02.490Z,17.78
2023-03-19T14:11:05.971Z,17.78
2023-03-19T14:12:23.184Z,17.75
2023-03-19T14:13:32.022Z,17.72
2023-03-19T14:14:34.255Z,17.72
2023-03-19T14:15:41.862Z,17.70
2023-03-19T14:16:46.877Z,17.69
2023-03-19T14:17:58.560Z,17.67
2023-03-19T14:19:04.929Z,17.65
2023-03-19T14:20:12.413Z,17.65
2023-03-19T14:21:21.792Z,17.63
2023-03-19T14:22:55.060Z,17.61
2023-03-19T14:24:54.758Z,17.59
2023-03-19T14:26:05.294Z,17.57
2023-03-19T14:27:15.409Z,17.55
2023-03-19T14:28:19.914Z,17.54
2023-03-19T14:29:25.085Z,17.52
2023-03-19T14:30:40.866Z,17.51
2023-03-19T14:31:49.544Z,17.47
2023-03-19T14:32:53.447Z,17.46
2023-03-19T14:34:03.368Z,17.42
2023-03-19T14:35:06.928Z,17.39
2023-03-19T14:36:19.225Z,17.38
2023-03-19T14:37:29.403Z,17.36
2023-03-19T14:38:51.998Z,17.34
2023-03-19T14:40:22.461Z,17.34
2023-03-19T14:41:28.869Z,17.32
2023-03-19T14:43:01.084Z,17.31
2023-03-19T14:44:11.919Z,17.30
2023-03-19T14:45:32.990Z,17.29
2023-03-19T14:47:03.441Z,17.27